createdAt,value
2018-04-26T00:01:57.165Z,11.14
2018-04-26T00:04:25.855Z,11.15
2018-04-26T00:06:54.073Z,11.16
2018-04-26T00:09:22.273Z,11.13
2018-04-26T00:11:50.706Z,11.08
2018-04-26T00:14:18.982Z,11.04
2018-04-26T00:16:47.231Z,11.01
2018-04-26T00:19:15.847Z,11.04
2018-04-26T00:21:44.053Z,11.05
2018-04-26T00:24:12.455Z,10.99
2018-04-26T00:26:41.115Z,10.98
2018-04-26T00:29:09.313Z,10.94
2018-04-26T00:31:37.619Z,10.92
2018-04-26T00:34:06.093Z,10.92
2018-04-26T00:36:34.341Z,10.90
2018-04-26T00:39:02.741Z,10.85
2018-04-26T00:41:31.235Z,10.88
2018-04-26T00:43:59.458Z,10.83
2018-04-26T00:46:27.877Z,10.85
2018-04-26T00:48:56.479Z,10.84
2018-04-26T00:51:36.603Z,10.82
2018-04-26T00:54:04.828Z,10.73
2018-04-26T00:56:33.030Z,10.69
2018-04-26T00:59:01.691Z,10.69
2018-04-26T01:01:29.891Z,10.73
2018-04-26T01:03:58.214Z,10.80
2018-04-26T01:06:26.924Z,10.80
2018-04-26T01:08:55.130Z,10.87
2018-04-26T01:11:23.445Z,10.87
2018-04-26T01:13:52.424Z,10.90
2018-04-26T01:16:20.659Z,10.91
2018-04-26T01:18:48.841Z,10.93
2018-04-26T01:21:17.579Z,11.03
2018-04-26T01:23:45.778Z,11.02
2018-04-26T01:26:13.988Z,10.99
2018-04-26T01:28:42.759Z,11.07
2018-04-26T01:31:10.965Z,11.09
2018-04-26T01:33:39.175Z,11.11
2018-04-26T01:36:07.857Z,11.15
2018-04-26T01:38:36.077Z,11.14
2018-04-26T01:41:04.301Z,11.16
2018-04-26T01:43:32.971Z,11.13
2018-04-26T01:46:01.176Z,11.16
2018-04-26T01:48:30.248Z,11.18
2018-04-26T01:50:58.522Z,11.22
2018-04-26T01:53:27.370Z,11.12
2018-04-26T01:55:55.590Z,11.12
2018-04-26T01:58:23.790Z,11.19
2018-04-26T02:00:52.503Z,11.21
2018-04-26T02:03:20.694Z,11.17
2018-04-26T02:05:48.931Z,11.25
2018-04-26T02:08:17.638Z,11.24
2018-04-26T02:10:45.835Z,11.23
2018-04-26T02:13:14.070Z,11.22
2018-04-26T02:15:42.834Z,11.22
2018-04-26T02:18:11.037Z,11.22
2018-04-26T02:20:39.238Z,11.21
2018-04-26T02:23:07.856Z,11.25
2018-04-26T02:25:36.202Z,11.24
2018-04-26T02:28:05.025Z,11.22
2018-04-26T02:30:33.739Z,11.29
2018-04-26T02:33:01.975Z,11.23
2018-04-26T02:35:30.235Z,11.30
2018-04-26T02:37:58.884Z,11.27
2018-04-26T02:40:27.141Z,11.29
2018-04-26T02:42:55.368Z,11.26
2018-04-26T02:45:23.991Z,11.22
2018-04-26T02:47:52.196Z,11.23
2018-04-26T02:50:20.627Z,11.31
2018-04-26T02:52:49.145Z,11.30
2018-04-26T02:55:17.986Z,11.25
2018-04-26T02:57:46.196Z,11.28
2018-04-26T03:00:14.835Z,11.24
2018-04-26T03:02:43.066Z,11.32
2018-04-26T03:05:11.283Z,11.30
2018-04-26T03:07:39.877Z,11.27
2018-04-26T03:10:08.124Z,11.23
2018-04-26T03:12:36.325Z,11.20
2018-04-26T03:15:05.101Z,11.17
2018-04-26T03:17:33.344Z,11.15
2018-04-26T03:20:01.980Z,11.19
2018-04-26T03:22:40.624Z,11.19
2018-04-26T03:25:09.338Z,11.20
2018-04-26T03:27:37.525Z,11.16
2018-04-26T03:30:06.480Z,11.12
2018-04-26T03:32:35.062Z,11.14
2018-04-26T03:35:03.924Z,11.14
2018-04-26T03:37:32.165Z,11.13
2018-04-26T03:40:00.991Z,11.16
2018-04-26T03:42:29.631Z,11.19
2018-04-26T03:44:57.850Z,11.13
2018-04-26T03:47:26.074Z,11.09
2018-04-26T03:49:54.713Z,11.15
2018-04-26T03:52:22.909Z,11.14
2018-04-26T03:54:51.164Z,11.15
2018-04-26T03:57:19.901Z,11.19
2018-04-26T04:00:00.567Z,11.14
2018-04-26T04:02:41.617Z,11.15
2018-04-26T04:08:13.118Z,11.12
2018-04-26T04:10:41.503Z,11.23
2018-04-26T04:13:10.264Z,11.21
2018-04-26T04:15:38.446Z,11.14
2018-04-26T04:18:06.713Z,11.07
2018-04-26T04:20:35.512Z,11.06
2018-04-26T04:23:03.750Z,11.03
2018-04-26T04:25:32.160Z,11.03
2018-04-26T04:28:01.012Z,10.96
2018-04-26T04:30:29.164Z,11.02
2018-04-26T04:32:57.352Z,11.05
2018-04-26T04:35:25.650Z,11.03
2018-04-26T04:37:53.820Z,10.97
2018-04-26T04:40:23.159Z,10.99
2018-04-26T04:42:51.369Z,10.97
2018-04-26T04:45:19.543Z,10.93
2018-04-26T04:47:47.780Z,10.86
2018-04-26T04:50:16.640Z,10.87
2018-04-26T04:52:44.847Z,10.88
2018-04-26T04:55:13.601Z,10.86
2018-04-26T04:57:42.735Z,10.92
2018-04-26T05:00:10.948Z,10.94
2018-04-26T05:02:39.159Z,11.05
2018-04-26T05:05:07.740Z,11.04
2018-04-26T05:07:35.971Z,11.02
2018-04-26T05:10:04.199Z,11.01
2018-04-26T05:12:55.234Z,11.02
2018-04-26T05:15:29.301Z,11.11
2018-04-26T05:17:57.987Z,11.10
2018-04-26T05:20:26.177Z,11.07
2018-04-26T05:22:54.517Z,11.03
2018-04-26T05:25:23.155Z,11.03
2018-04-26T05:27:51.353Z,10.99
2018-04-26T05:30:19.709Z,10.95
2018-04-26T05:32:48.469Z,10.97
2018-04-26T05:35:16.925Z,11.00
2018-04-26T05:37:45.139Z,10.96
2018-04-26T05:40:13.886Z,10.99
2018-04-26T05:42:42.110Z,10.96
2018-04-26T05:45:10.300Z,10.93
2018-04-26T05:47:39.027Z,10.97
2018-04-26T05:50:07.253Z,11.03
2018-04-26T05:52:35.474Z,11.01
2018-04-26T05:55:04.239Z,11.05
2018-04-26T05:57:32.483Z,11.01
2018-04-26T06:00:00.715Z,11.02
2018-04-26T06:02:29.343Z,11.08
2018-04-26T06:04:57.585Z,11.13
2018-04-26T06:07:25.824Z,11.20
2018-04-26T06:09:54.668Z,11.30
2018-04-26T06:12:23.679Z,11.28
2018-04-26T06:14:51.929Z,11.38
2018-04-26T06:17:20.740Z,11.50
2018-04-26T06:19:49.695Z,11.54
2018-04-26T06:22:18.727Z,11.62
2018-04-26T06:24:46.944Z,11.64
2018-04-26T06:27:15.794Z,11.64
2018-04-26T06:29:44.613Z,11.63
2018-04-26T06:32:12.855Z,11.71
2018-04-26T06:34:41.057Z,11.83
2018-04-26T06:37:09.777Z,11.79
2018-04-26T06:39:38.034Z,11.79
2018-04-26T06:42:06.272Z,11.74
2018-04-26T06:44:34.911Z,11.72
2018-04-26T06:47:03.167Z,11.65
2018-04-26T06:49:31.389Z,11.69
2018-04-26T06:52:00.153Z,11.66
2018-04-26T06:54:28.399Z,11.69
2018-04-26T06:56:56.576Z,11.85
2018-04-26T06:59:25.292Z,11.82
2018-04-26T07:01:53.643Z,11.84
2018-04-26T07:04:21.861Z,11.88
2018-04-26T07:06:50.715Z,11.89
2018-04-26T07:09:19.508Z,12.07
2018-04-26T07:11:47.731Z,12.14
2018-04-26T07:14:16.515Z,12.15
2018-04-26T07:16:45.087Z,12.24
2018-04-26T07:19:13.354Z,12.30
2018-04-26T07:21:41.654Z,12.39
2018-04-26T07:24:10.199Z,12.41
2018-04-26T07:26:38.443Z,12.38
2018-04-26T07:29:06.713Z,12.46
2018-04-26T07:31:35.232Z,12.53
2018-04-26T07:34:03.502Z,12.58
2018-04-26T07:36:31.779Z,12.43
2018-04-26T07:39:00.523Z,12.42
2018-04-26T07:41:28.793Z,12.42
2018-04-26T07:43:57.019Z,12.50
2018-04-26T07:46:25.608Z,12.52
2018-04-26T07:48:53.860Z,12.60
2018-04-26T07:51:22.085Z,12.58
2018-04-26T07:53:50.793Z,12.59
2018-04-26T07:56:19.016Z,12.67
2018-04-26T07:58:47.320Z,12.62
2018-04-26T08:01:15.881Z,12.78
2018-04-26T08:03:44.116Z,12.79
2018-04-26T08:06:12.369Z,12.77
2018-04-26T08:08:40.995Z,12.75
2018-04-26T08:11:09.342Z,12.68
2018-04-26T08:13:37.633Z,12.88
2018-04-26T08:16:06.195Z,12.99
2018-04-26T08:18:34.444Z,13.05
2018-04-26T08:21:02.777Z,13.03
2018-04-26T08:23:31.405Z,13.06
2018-04-26T08:25:59.635Z,13.15
2018-04-26T08:28:28.013Z,13.26
2018-04-26T08:30:56.538Z,13.00
2018-04-26T08:33:24.839Z,12.88
2018-04-26T08:35:53.192Z,12.95
2018-04-26T08:38:21.733Z,13.01
2018-04-26T08:40:49.958Z,13.09
2018-04-26T08:43:18.313Z,12.90
2018-04-26T08:45:46.871Z,12.74
2018-04-26T08:48:15.074Z,12.49
2018-04-26T08:50:43.453Z,12.46
2018-04-26T08:53:12.123Z,12.30
2018-04-26T08:55:40.332Z,12.19
2018-04-26T08:58:08.536Z,12.26
2018-04-26T09:00:37.193Z,12.34
2018-04-26T09:03:05.431Z,12.49
2018-04-26T09:05:33.702Z,12.51
2018-04-26T09:08:02.388Z,12.67
2018-04-26T09:10:30.671Z,12.87
2018-04-26T09:12:58.880Z,13.03
2018-04-26T09:15:27.542Z,13.17
2018-04-26T09:17:55.770Z,13.32
2018-04-26T09:20:24.179Z,13.55
2018-04-26T09:22:52.809Z,13.78
2018-04-26T09:25:21.030Z,14.03
2018-04-26T09:27:49.419Z,13.87
2018-04-26T09:30:17.911Z,13.77
2018-04-26T09:32:46.117Z,13.69
2018-04-26T09:35:14.513Z,13.73
2018-04-26T09:37:43.140Z,13.73
2018-04-26T09:40:11.380Z,13.91
2018-04-26T09:42:39.752Z,14.09
2018-04-26T09:45:08.377Z,14.11
2018-04-26T09:47:36.616Z,14.12
2018-04-26T09:50:04.861Z,14.15
2018-04-26T09:52:33.499Z,14.26
2018-04-26T09:55:01.718Z,14.34
2018-04-26T09:57:30.091Z,14.32
2018-04-26T09:59:58.668Z,14.32
2018-04-26T10:02:26.895Z,14.28
2018-04-26T10:04:55.273Z,14.44
2018-04-26T10:07:23.842Z,14.60
2018-04-26T10:09:52.113Z,14.86
2018-04-26T10:12:20.363Z,14.75
2018-04-26T10:14:48.967Z,14.59
2018-04-26T10:17:17.185Z,14.58
2018-04-26T10:19:45.515Z,14.56
2018-04-26T10:22:14.169Z,14.42
2018-04-26T10:24:42.376Z,14.37
2018-04-26T10:27:11.800Z,14.25
2018-04-26T10:29:40.085Z,14.24
2018-04-26T10:32:08.836Z,14.42
2018-04-26T10:34:37.048Z,14.63
2018-04-26T10:37:05.270Z,14.70
2018-04-26T10:39:33.963Z,14.85
2018-04-26T10:42:02.176Z,14.79
2018-04-26T10:44:30.403Z,14.80
2018-04-26T10:46:59.588Z,14.73
2018-04-26T10:49:27.826Z,14.51
2018-04-26T10:51:56.399Z,14.49
2018-04-26T10:54:24.878Z,14.43
2018-04-26T10:56:53.073Z,14.22
2018-04-26T10:59:21.502Z,13.98
2018-04-26T11:01:50.047Z,13.71
2018-04-26T11:04:18.277Z,13.53
2018-04-26T11:06:46.575Z,13.59
2018-04-26T11:09:15.224Z,13.92
2018-04-26T11:11:43.521Z,14.20
2018-04-26T11:14:11.721Z,14.37
2018-04-26T11:16:40.372Z,14.59
2018-04-26T11:19:08.595Z,14.63
2018-04-26T11:21:37.053Z,14.73
2018-04-26T11:24:05.595Z,14.79
2018-04-26T11:26:33.824Z,14.85
2018-04-26T11:29:02.207Z,14.97
2018-04-26T11:31:31.357Z,14.98
2018-04-26T11:36:34.140Z,15.01
2018-04-26T11:39:02.308Z,15.16
2018-04-26T11:41:30.962Z,15.29
2018-04-26T11:43:59.189Z,15.42
2018-04-26T11:46:27.607Z,15.43
2018-04-26T11:48:56.241Z,15.53
2018-04-26T11:51:24.467Z,15.39
2018-04-26T11:53:52.740Z,15.55
2018-04-26T11:56:21.476Z,15.79
2018-04-26T11:58:49.625Z,15.84
2018-04-26T12:01:17.979Z,16.02
2018-04-26T12:03:46.601Z,15.91
2018-04-26T12:06:14.804Z,15.87
2018-04-26T12:08:43.273Z,15.98
2018-04-26T12:11:11.751Z,16.10
2018-04-26T12:13:39.963Z,16.04
2018-04-26T12:16:08.455Z,16.43
2018-04-26T12:18:36.964Z,17.24
2018-04-26T12:21:05.261Z,17.46
2018-04-26T12:23:33.530Z,17.57
2018-04-26T12:26:02.229Z,17.42
2018-04-26T12:28:30.441Z,17.29
2018-04-26T12:30:58.714Z,17.13
2018-04-26T12:33:27.376Z,17.65
2018-04-26T12:35:55.579Z,17.75
2018-04-26T12:38:24.009Z,17.96
2018-04-26T12:40:52.548Z,17.97
2018-04-26T12:43:20.802Z,18.00
2018-04-26T12:45:49.024Z,18.27
2018-04-26T12:48:17.976Z,18.08
2018-04-26T12:50:46.192Z,18.41
2018-04-26T12:53:14.392Z,18.63
2018-04-26T12:55:42.851Z,18.71
2018-04-26T12:58:11.130Z,18.56
2018-04-26T13:00:39.359Z,18.45
2018-04-26T13:03:07.981Z,18.59
2018-04-26T13:05:36.218Z,17.88
2018-04-26T13:08:04.499Z,17.53
2018-04-26T13:10:33.113Z,17.12
2018-04-26T13:13:01.354Z,16.65
2018-04-26T13:15:30.417Z,16.53
2018-04-26T13:17:58.925Z,16.33
2018-04-26T13:20:27.110Z,16.24
2018-04-26T13:22:55.324Z,16.13
2018-04-26T13:25:23.786Z,15.91
2018-04-26T13:27:52.023Z,15.60
2018-04-26T13:30:20.412Z,15.36
2018-04-26T13:32:49.032Z,14.75
2018-04-26T13:35:17.239Z,14.26
2018-04-26T13:37:45.531Z,13.89
2018-04-26T13:40:14.088Z,13.77
2018-04-26T13:42:42.297Z,13.83
2018-04-26T13:45:10.693Z,13.88
2018-04-26T13:47:39.282Z,13.94
2018-04-26T13:50:07.497Z,14.06
2018-04-26T13:52:35.728Z,14.14
2018-04-26T13:55:04.382Z,14.28
2018-04-26T13:57:32.591Z,14.61
2018-04-26T14:00:00.976Z,15.49
2018-04-26T14:02:29.127Z,16.12
2018-04-26T14:04:57.295Z,16.29
2018-04-26T14:07:25.507Z,16.68
2018-04-26T14:09:53.722Z,16.97
2018-04-26T14:12:21.906Z,17.68
2018-04-26T14:14:50.337Z,18.20
2018-04-26T14:17:18.551Z,18.21
2018-04-26T14:19:46.766Z,18.01
2018-04-26T14:22:15.223Z,17.82
2018-04-26T14:24:43.445Z,18.15
2018-04-26T14:27:11.683Z,18.05
2018-04-26T14:29:40.340Z,18.29
2018-04-26T14:32:08.460Z,18.20
2018-04-26T14:34:36.830Z,18.37
2018-04-26T14:37:05.351Z,18.74
2018-04-26T14:39:33.541Z,18.58
2018-04-26T14:42:01.979Z,18.38
2018-04-26T14:44:30.506Z,18.82
2018-04-26T14:46:58.740Z,18.47
2018-04-26T14:49:27.168Z,18.88
2018-04-26T14:51:55.808Z,19.14
2018-04-26T14:54:24.113Z,18.95
2018-04-26T14:56:52.336Z,19.19
2018-04-26T14:59:20.958Z,19.09
2018-04-26T15:01:49.170Z,18.89
2018-04-26T15:04:17.551Z,18.85
2018-04-26T15:06:46.160Z,18.79
2018-04-26T15:09:14.391Z,18.48
2018-04-26T15:11:42.828Z,18.38
2018-04-26T15:14:11.396Z,18.09
2018-04-26T15:16:39.592Z,17.85
2018-04-26T15:19:07.993Z,17.84
2018-04-26T15:21:36.557Z,17.93
2018-04-26T15:24:05.058Z,17.89
2018-04-26T15:26:33.250Z,17.93
2018-04-26T15:29:01.765Z,17.87
2018-04-26T15:31:30.041Z,18.05
2018-04-26T15:33:58.434Z,17.71
2018-04-26T15:36:27.077Z,17.20
2018-04-26T15:38:55.339Z,16.72
2018-04-26T15:41:23.513Z,16.40
2018-04-26T15:43:52.154Z,16.36
2018-04-26T15:46:20.358Z,16.20
2018-04-26T15:48:48.889Z,16.18
2018-04-26T15:51:17.552Z,16.11
2018-04-26T15:53:57.610Z,16.14
2018-04-26T15:56:54.678Z,16.17
2018-04-26T15:59:34.745Z,16.02
2018-04-26T16:05:39.012Z,16.16
2018-04-26T16:08:25.241Z,16.19
2018-04-26T16:11:11.716Z,16.12
2018-04-26T16:13:57.686Z,16.10
2018-04-26T16:16:43.383Z,16.00
2018-04-26T16:19:33.007Z,16.08
2018-04-26T16:22:19.205Z,16.07
2018-04-26T16:24:59.217Z,15.96
2018-04-26T16:27:44.235Z,16.02
2018-04-26T16:30:24.219Z,16.03
2018-04-26T16:33:05.307Z,16.05
2018-04-26T16:35:45.212Z,16.13
2018-04-26T16:38:25.224Z,16.05
2018-04-26T16:40:53.472Z,16.02
2018-04-26T16:43:21.729Z,16.00
2018-04-26T16:45:50.418Z,16.01
2018-04-26T16:48:18.659Z,16.00
2018-04-26T16:50:46.886Z,15.88
2018-04-26T16:53:15.738Z,15.39
2018-04-26T16:55:43.958Z,14.64
2018-04-26T16:58:12.195Z,14.17
2018-04-26T17:00:40.701Z,13.93
2018-04-26T17:03:08.925Z,13.86
2018-04-26T17:05:38.457Z,13.93
2018-04-26T17:08:07.078Z,14.00
2018-04-26T17:10:35.624Z,14.18
2018-04-26T17:13:03.844Z,14.33
2018-04-26T17:15:32.107Z,14.46
2018-04-26T17:18:00.754Z,14.46
2018-04-26T17:20:30.182Z,14.51
2018-04-26T17:22:58.398Z,14.54
2018-04-26T17:25:26.583Z,14.51
2018-04-26T17:27:55.325Z,14.45
2018-04-26T17:30:23.511Z,14.37
2018-04-26T17:32:51.736Z,14.29
2018-04-26T17:35:20.583Z,14.23
2018-04-26T17:37:48.790Z,14.20
2018-04-26T17:40:17.091Z,14.06
2018-04-26T17:42:45.297Z,14.08
2018-04-26T17:45:13.599Z,14.01
2018-04-26T17:47:42.551Z,13.90
2018-04-26T17:50:11.538Z,13.86
2018-04-26T17:52:39.870Z,13.73
2018-04-26T17:55:08.467Z,13.77
2018-04-26T17:57:36.765Z,13.82
2018-04-26T18:00:05.229Z,13.70
2018-04-26T18:02:34.293Z,13.74
2018-04-26T18:05:03.380Z,13.78
2018-04-26T18:07:31.558Z,13.86
2018-04-26T18:09:59.808Z,13.81
2018-04-26T18:12:28.518Z,13.68
2018-04-26T18:14:56.727Z,13.69
2018-04-26T18:17:25.551Z,13.60
2018-04-26T18:20:01.040Z,13.48
2018-04-26T18:22:22.372Z,13.43
2018-04-26T18:24:50.646Z,13.46
2018-04-26T18:27:19.266Z,13.50
2018-04-26T18:29:47.464Z,13.46
2018-04-26T18:32:16.178Z,13.47
2018-04-26T18:34:45.086Z,13.47
2018-04-26T18:37:14.063Z,13.47
2018-04-26T18:39:42.258Z,13.47
2018-04-26T18:42:11.050Z,13.52
2018-04-26T18:44:39.760Z,13.53
2018-04-26T18:47:08.008Z,13.53
2018-04-26T18:49:36.260Z,13.52
2018-04-26T18:52:04.940Z,13.52
2018-04-26T18:54:33.181Z,13.51
2018-04-26T18:57:01.555Z,13.46
2018-04-26T18:59:30.039Z,13.48
2018-04-26T19:01:58.287Z,13.47
2018-04-26T19:04:26.640Z,13.47
2018-04-26T19:06:55.255Z,13.41
2018-04-26T19:09:23.548Z,13.38
2018-04-26T19:11:51.965Z,13.36
2018-04-26T19:14:20.797Z,13.36
2018-04-26T19:16:49.044Z,13.34
2018-04-26T19:19:17.387Z,13.35
2018-04-26T19:21:46.047Z,13.39
2018-04-26T19:24:14.266Z,13.41
2018-04-26T19:26:42.542Z,13.41
2018-04-26T19:29:11.199Z,13.45
2018-04-26T19:31:39.390Z,13.42
2018-04-26T19:34:07.588Z,13.39
2018-04-26T19:36:36.266Z,13.41
2018-04-26T19:39:04.489Z,13.35
2018-04-26T19:41:32.772Z,13.33
2018-04-26T19:44:01.565Z,13.33
2018-04-26T19:46:29.807Z,13.32
2018-04-26T19:48:58.018Z,13.35
2018-04-26T19:51:26.451Z,13.35
2018-04-26T19:53:54.638Z,13.31
2018-04-26T19:56:22.968Z,13.26
2018-04-26T19:58:51.739Z,13.20
2018-04-26T20:01:20.465Z,13.14
2018-04-26T20:03:48.970Z,13.08
2018-04-26T20:06:17.513Z,13.03
2018-04-26T20:08:45.782Z,12.97
2018-04-26T20:11:13.977Z,12.96
2018-04-26T20:13:42.609Z,12.90
2018-04-26T20:16:10.825Z,12.85
2018-04-26T20:18:39.100Z,12.82
2018-04-26T20:21:08.838Z,12.75
2018-04-26T20:23:38.206Z,12.72
2018-04-26T20:26:06.412Z,12.71
2018-04-26T20:28:34.642Z,12.66
2018-04-26T20:31:03.359Z,12.60
2018-04-26T20:33:31.580Z,12.53
2018-04-26T20:35:59.796Z,12.52
2018-04-26T20:38:28.540Z,12.45
2018-04-26T20:40:56.781Z,12.39
2018-04-26T20:43:24.988Z,12.34
2018-04-26T20:45:53.796Z,12.32
2018-04-26T20:48:33.896Z,12.28
2018-04-26T20:51:02.132Z,12.27
2018-04-26T20:53:30.356Z,12.25
2018-04-26T20:55:58.950Z,12.20
2018-04-26T20:58:27.160Z,12.16
2018-04-26T21:00:55.421Z,12.12
2018-04-26T21:03:24.169Z,12.10
2018-04-26T21:05:52.468Z,12.04
2018-04-26T21:08:20.788Z,12.05
2018-04-26T21:10:49.387Z,12.02
2018-04-26T21:13:17.657Z,12.00
2018-04-26T21:15:45.909Z,11.94
2018-04-26T21:18:14.512Z,11.90
2018-04-26T21:20:42.830Z,11.89
2018-04-26T21:23:11.174Z,11.85
2018-04-26T21:25:39.794Z,11.79
2018-04-26T21:28:08.072Z,11.77
2018-04-26T21:30:36.346Z,11.76
2018-04-26T21:33:04.893Z,11.74
2018-04-26T21:35:33.253Z,11.66
2018-04-26T21:38:01.486Z,11.62
2018-04-26T21:40:30.148Z,11.60
2018-04-26T21:42:58.444Z,11.57
2018-04-26T21:45:26.706Z,11.53
2018-04-26T21:47:55.281Z,11.52
2018-04-26T21:50:29.285Z,11.49
2018-04-26T21:53:03.136Z,11.51
2018-04-26T21:55:37.027Z,11.49
2018-04-26T21:58:11.072Z,11.49
2018-04-26T22:00:44.896Z,11.42
2018-04-26T22:03:13.198Z,11.39
2018-04-26T22:05:41.853Z,11.37
2018-04-26T22:08:10.426Z,11.32
2018-04-26T22:10:38.702Z,11.30
2018-04-26T22:13:06.968Z,11.28
2018-04-26T22:15:35.630Z,11.25
2018-04-26T22:18:03.915Z,11.21
2018-04-26T22:20:32.206Z,11.16
2018-04-26T22:23:00.812Z,11.16
2018-04-26T22:25:29.133Z,11.13
2018-04-26T22:27:57.400Z,11.10
2018-04-26T22:30:25.995Z,11.08
2018-04-26T22:32:54.278Z,11.08
2018-04-26T22:35:22.557Z,11.04
2018-04-26T22:37:51.273Z,10.98
2018-04-26T22:40:19.630Z,10.98
2018-04-26T22:42:47.918Z,10.96
2018-04-26T22:45:16.763Z,10.92
2018-04-26T22:47:45.062Z,10.93
2018-04-26T22:50:13.348Z,10.89
2018-04-26T22:52:42.038Z,10.89
2018-04-26T22:55:10.372Z,10.86
2018-04-26T22:57:38.674Z,10.86
2018-04-26T23:00:07.560Z,10.85
2018-04-26T23:02:36.273Z,10.84
2018-04-26T23:05:04.583Z,10.82
2018-04-26T23:07:32.941Z,10.77
2018-04-26T23:10:02.440Z,10.76
2018-04-26T23:12:30.746Z,10.73
2018-04-26T23:14:59.097Z,10.72
2018-04-26T23:17:27.957Z,10.71
2018-04-26T23:19:56.715Z,10.70
2018-04-26T23:22:24.988Z,10.71
2018-04-26T23:24:53.297Z,10.69
2018-04-26T23:27:21.867Z,10.67
2018-04-26T23:29:50.197Z,10.66
2018-04-26T23:32:18.985Z,10.65
2018-04-26T23:34:47.669Z,10.61
2018-04-26T23:37:16.015Z,10.57
2018-04-26T23:39:44.264Z,10.61
2018-04-26T23:42:13.026Z,10.58
2018-04-26T23:44:41.319Z,10.61
2018-04-26T23:47:09.628Z,10.58
2018-04-26T23:49:38.489Z,10.55
2018-04-26T23:52:06.823Z,10.52
2018-04-26T23:54:35.105Z,10.54
2018-04-26T23:57:03.706Z,10.52
2018-04-26T23:59:32.001Z,10.50
